createdAt,value
2018-11-01T00:01:04.742Z,91.16
2018-11-01T00:03:34.080Z,91.77
2018-11-01T00:06:02.656Z,90.71
2018-11-01T00:08:31.260Z,91.14
2018-11-01T00:11:02.829Z,91.62
2018-11-01T00:13:31.452Z,90.99
2018-11-01T00:16:00.156Z,92.40
2018-11-01T00:18:28.773Z,93.15
2018-11-01T00:20:57.336Z,93.65
2018-11-01T00:23:25.937Z,92.19
2018-11-01T00:25:54.536Z,94.48
2018-11-01T00:28:23.245Z,93.76
2018-11-01T00:30:51.863Z,91.68
2018-11-01T00:33:20.384Z,93.04
2018-11-01T00:35:49.009Z,92.23
2018-11-01T00:38:17.585Z,92.83
2018-11-01T00:40:46.239Z,93.24
2018-11-01T00:43:14.845Z,94.37
2018-11-01T00:45:43.820Z,93.15
2018-11-01T00:48:12.540Z,92.83
2018-11-01T00:50:41.199Z,93.29
2018-11-01T00:53:09.961Z,92.78
2018-11-01T00:55:38.576Z,91.85
2018-11-01T00:58:07.436Z,91.87
2018-11-01T01:00:35.977Z,92.62
2018-11-01T01:03:05.001Z,93.08
2018-11-01T01:05:33.621Z,92.68
2018-11-01T01:08:02.172Z,93.23
2018-11-01T01:10:30.937Z,94.02
2018-11-01T01:12:59.480Z,94.00
2018-11-01T01:15:28.077Z,92.96
2018-11-01T01:17:56.694Z,93.34
2018-11-01T01:20:25.265Z,92.95
2018-11-01T01:22:53.881Z,91.87
2018-11-01T01:25:22.547Z,92.87
2018-11-01T01:27:51.133Z,93.33
2018-11-01T01:30:21.109Z,92.72
2018-11-01T01:32:50.417Z,92.60
2018-11-01T01:35:19.263Z,93.94
2018-11-01T01:37:47.951Z,94.02
2018-11-01T01:40:16.547Z,94.45
2018-11-01T01:42:51.276Z,94.11
2018-11-01T01:45:20.288Z,93.35
2018-11-01T01:47:49.193Z,92.98
2018-11-01T01:50:18.697Z,93.45
2018-11-01T01:52:47.677Z,94.40
2018-11-01T01:55:16.613Z,94.66
2018-11-01T01:57:45.186Z,94.37
2018-11-01T02:00:15.858Z,95.04
2018-11-01T02:02:45.968Z,94.50
2018-11-01T02:05:14.788Z,94.23
2018-11-01T02:07:43.475Z,94.60
2018-11-01T02:10:13.681Z,94.45
2018-11-01T02:12:42.638Z,94.49
2018-11-01T02:15:15.525Z,93.72
2018-11-01T02:17:44.461Z,94.66
2018-11-01T02:20:14.885Z,94.55
2018-11-01T02:22:44.208Z,95.25
2018-11-01T02:25:12.896Z,95.33
2018-11-01T02:27:46.732Z,95.41
2018-11-01T02:30:16.598Z,95.43
2018-11-01T02:32:45.966Z,95.53
2018-11-01T02:35:15.825Z,95.76
2018-11-01T02:37:45.176Z,96.82
2018-11-01T02:40:14.288Z,97.89
2018-11-01T02:42:43.363Z,98.07
2018-11-01T02:45:13.125Z,98.00
2018-11-01T02:47:41.981Z,98.28
2018-11-01T02:50:11.745Z,98.04
2018-11-01T02:52:40.685Z,98.30
2018-11-01T02:55:10.029Z,98.84
2018-11-01T02:57:38.945Z,98.95
2018-11-01T03:00:09.660Z,97.68
2018-11-01T03:02:38.323Z,96.32
2018-11-01T03:05:07.604Z,95.67
2018-11-01T03:07:36.184Z,95.51
2018-11-01T03:10:05.775Z,95.67
2018-11-01T03:12:34.447Z,96.11
2018-11-01T03:15:02.997Z,96.21
2018-11-01T03:17:31.564Z,96.78
2018-11-01T03:20:00.304Z,95.60
2018-11-01T03:22:28.905Z,95.64
2018-11-01T03:24:57.632Z,95.88
2018-11-01T03:27:26.169Z,96.15
2018-11-01T03:29:54.824Z,96.46
2018-11-01T03:32:23.474Z,95.81
2018-11-01T03:34:52.015Z,96.02
2018-11-01T03:37:20.516Z,95.59
2018-11-01T03:39:49.125Z,95.22
2018-11-01T03:42:17.785Z,94.30
2018-11-01T03:44:46.441Z,95.28
2018-11-01T03:47:15.074Z,94.80
2018-11-01T03:49:43.849Z,94.11
2018-11-01T03:52:12.488Z,94.49
2018-11-01T03:54:41.193Z,93.67
2018-11-01T03:57:10.152Z,94.15
2018-11-01T03:59:38.762Z,93.40
2018-11-01T04:02:07.469Z,93.40
2018-11-01T04:04:36.477Z,93.86
2018-11-01T04:07:05.039Z,95.12
2018-11-01T04:09:33.625Z,95.25
2018-11-01T04:12:02.287Z,94.51
2018-11-01T04:14:30.941Z,93.86
2018-11-01T04:16:59.631Z,95.07
2018-11-01T04:19:28.136Z,94.96
2018-11-01T04:22:04.650Z,94.26
2018-11-01T04:24:34.063Z,93.93
2018-11-01T04:27:03.184Z,95.34
2018-11-01T04:29:32.511Z,96.42
2018-11-01T04:32:01.216Z,95.80
2018-11-01T04:34:29.718Z,94.08
2018-11-01T04:36:58.365Z,95.09
2018-11-01T04:39:27.284Z,95.57
2018-11-01T04:41:56.185Z,95.88
2018-11-01T04:44:24.930Z,95.12
2018-11-01T04:46:53.652Z,96.26
2018-11-01T04:49:22.192Z,95.85
2018-11-01T04:51:50.892Z,94.63
2018-11-01T04:54:19.693Z,95.36
2018-11-01T04:56:48.372Z,95.43
2018-11-01T04:59:16.996Z,95.69
2018-11-01T05:01:45.632Z,95.90
2018-11-01T05:04:14.176Z,96.12
2018-11-01T05:06:49.524Z,95.81
2018-11-01T05:09:18.064Z,96.47
2018-11-01T05:11:46.904Z,96.24
2018-11-01T05:14:15.469Z,96.24
2018-11-01T05:16:44.094Z,95.14
2018-11-01T05:19:12.661Z,95.69
2018-11-01T05:21:41.254Z,95.75
2018-11-01T05:24:09.833Z,95.61
2018-11-01T05:26:38.416Z,95.89
2018-11-01T05:29:06.985Z,96.14
2018-11-01T05:31:35.633Z,96.73
2018-11-01T05:34:04.493Z,96.23
2018-11-01T05:36:33.097Z,97.19
2018-11-01T05:39:01.753Z,97.03
2018-11-01T05:41:30.325Z,97.66
2018-11-01T05:43:58.986Z,98.23
2018-11-01T05:46:27.614Z,97.75
2018-11-01T05:48:56.355Z,96.84
2018-11-01T05:51:24.920Z,97.00
2018-11-01T05:53:53.637Z,97.03
2018-11-01T05:56:22.224Z,97.35
2018-11-01T05:58:50.745Z,97.21
2018-11-01T06:01:43.672Z,98.32
2018-11-01T06:04:12.274Z,99.79
2018-11-01T06:06:40.933Z,99.10
2018-11-01T06:09:10.468Z,99.70
2018-11-01T06:11:39.048Z,99.45
2018-11-01T06:14:07.714Z,100.00
2018-11-01T06:16:36.334Z,100.00
2018-11-01T06:19:05.368Z,100.00
2018-11-01T06:21:33.956Z,99.27
2018-11-01T06:24:02.518Z,98.89
2018-11-01T06:26:31.231Z,98.80
2018-11-01T06:28:59.761Z,98.59
2018-11-01T06:31:28.537Z,98.42
2018-11-01T06:33:57.176Z,98.65
2018-11-01T06:36:25.788Z,99.19
2018-11-01T06:38:54.400Z,98.65
2018-11-01T06:41:23.057Z,98.00
2018-11-01T06:43:51.865Z,97.08
2018-11-01T06:46:20.468Z,96.87
2018-11-01T06:48:49.152Z,96.59
2018-11-01T06:51:17.804Z,97.11
2018-11-01T06:53:46.425Z,98.17
2018-11-01T06:56:15.280Z,97.20
2018-11-01T06:58:44.033Z,96.99
2018-11-01T07:01:12.604Z,97.25
2018-11-01T07:03:41.319Z,97.15
2018-11-01T07:06:09.855Z,97.93
2018-11-01T07:08:38.590Z,97.79
2018-11-01T07:11:07.292Z,97.47
2018-11-01T07:13:35.927Z,97.86
2018-11-01T07:16:04.885Z,96.81
2018-11-01T07:18:33.516Z,96.78
2018-11-01T07:21:02.173Z,96.30
2018-11-01T07:23:30.708Z,96.35
2018-11-01T07:25:59.630Z,96.22
2018-11-01T07:28:28.109Z,96.20
2018-11-01T07:30:56.677Z,96.14
2018-11-01T07:33:25.388Z,95.29
2018-11-01T07:35:54.016Z,96.10
2018-11-01T07:38:22.614Z,96.25
2018-11-01T07:40:51.214Z,96.49
2018-11-01T07:43:19.748Z,96.56
2018-11-01T07:45:48.341Z,95.84
2018-11-01T07:48:16.877Z,96.03
2018-11-01T07:50:45.493Z,96.56
2018-11-01T07:53:14.049Z,95.83
2018-11-01T07:55:42.596Z,96.59
2018-11-01T07:58:11.328Z,97.74
2018-11-01T08:00:39.888Z,98.42
2018-11-01T08:03:08.704Z,98.58
2018-11-01T08:05:37.473Z,98.26
2018-11-01T08:08:05.960Z,97.91
2018-11-01T08:10:34.576Z,97.93
2018-11-01T08:13:03.149Z,98.13
2018-11-01T08:15:31.800Z,97.98
2018-11-01T08:18:00.444Z,97.17
2018-11-01T08:20:29.253Z,96.35
2018-11-01T08:22:57.777Z,96.44
2018-11-01T08:25:26.317Z,96.51
2018-11-01T08:27:54.968Z,95.86
2018-11-01T08:30:23.528Z,95.34
2018-11-01T08:32:52.137Z,95.44
2018-11-01T08:35:20.755Z,94.61
2018-11-01T08:37:49.385Z,94.42
2018-11-01T08:40:18.024Z,94.84
2018-11-01T08:42:46.644Z,94.38
2018-11-01T08:45:15.984Z,94.57
2018-11-01T08:47:44.503Z,94.65
2018-11-01T08:50:14.360Z,94.05
2018-11-01T08:52:43.630Z,94.13
2018-11-01T08:55:12.712Z,93.99
2018-11-01T08:57:42.735Z,94.27
2018-11-01T09:00:12.245Z,95.02
2018-11-01T09:02:41.677Z,95.30
2018-11-01T09:05:11.213Z,95.99
2018-11-01T09:07:40.236Z,96.48
2018-11-01T09:10:12.305Z,96.78
2018-11-01T09:12:41.123Z,96.26
2018-11-01T09:15:11.365Z,96.83
2018-11-01T09:17:40.367Z,97.22
2018-11-01T09:20:09.607Z,96.78
2018-11-01T09:22:38.663Z,96.68
2018-11-01T09:25:07.501Z,95.22
2018-11-01T09:27:36.089Z,94.07
2018-11-01T09:30:06.053Z,95.12
2018-11-01T09:32:34.664Z,95.37
2018-11-01T09:35:03.341Z,94.82
2018-11-01T09:37:32.057Z,94.77
2018-11-01T09:40:00.845Z,94.62
2018-11-01T09:42:29.524Z,94.29
2018-11-01T09:44:58.219Z,93.15
2018-11-01T09:47:27.594Z,92.62
2018-11-01T09:49:55.906Z,92.45
2018-11-01T09:52:24.659Z,91.72
2018-11-01T09:54:53.356Z,90.89
2018-11-01T09:57:21.927Z,91.55
2018-11-01T09:59:50.873Z,90.46
2018-11-01T10:02:19.624Z,91.40
2018-11-01T10:04:48.149Z,91.12
2018-11-01T10:07:16.760Z,91.06
2018-11-01T10:09:45.405Z,91.28
2018-11-01T10:12:14.650Z,92.23
2018-11-01T10:14:43.260Z,92.53
2018-11-01T10:17:12.294Z,92.97
2018-11-01T10:19:40.518Z,91.70
2018-11-01T10:22:09.288Z,92.04
2018-11-01T10:24:41.281Z,91.36
2018-11-01T10:27:19.513Z,90.74
2018-11-01T10:29:38.814Z,91.22
2018-11-01T10:32:09.189Z,90.46
2018-11-01T10:34:37.743Z,90.66
2018-11-01T10:37:06.403Z,90.11
2018-11-01T10:39:35.093Z,88.64
2018-11-01T10:42:04.205Z,88.22
2018-11-01T10:44:32.982Z,87.98
2018-11-01T10:47:02.720Z,88.85
2018-11-01T10:49:31.266Z,88.38
2018-11-01T10:51:59.828Z,88.62
2018-11-01T10:54:28.523Z,88.69
2018-11-01T10:56:57.328Z,88.74
2018-11-01T10:59:25.969Z,87.74
2018-11-01T11:02:00.327Z,87.09
2018-11-01T11:04:29.041Z,87.49
2018-11-01T11:06:58.657Z,87.73
2018-11-01T11:09:27.488Z,87.17
2018-11-01T11:11:56.149Z,85.34
2018-11-01T11:14:24.761Z,85.50
2018-11-01T11:16:53.285Z,85.99
2018-11-01T11:19:23.177Z,85.94
2018-11-01T11:21:51.884Z,85.88
2018-11-01T11:24:20.485Z,85.57
2018-11-01T11:26:49.181Z,85.09
2018-11-01T11:29:18.044Z,85.36
2018-11-01T11:31:46.593Z,83.92
2018-11-01T11:34:15.117Z,84.32
2018-11-01T11:36:43.880Z,83.11
2018-11-01T11:39:13.518Z,83.44
2018-11-01T11:41:42.725Z,84.09
2018-11-01T11:44:11.613Z,85.45
2018-11-01T11:46:40.596Z,84.91
2018-11-01T11:49:09.389Z,85.72
2018-11-01T11:51:38.357Z,85.96
2018-11-01T11:54:07.622Z,86.85
2018-11-01T11:56:36.188Z,85.84
2018-11-01T11:59:05.182Z,86.77
2018-11-01T12:01:33.818Z,87.49
2018-11-01T12:04:03.122Z,87.49
2018-11-01T12:06:31.857Z,86.30
2018-11-01T12:09:00.484Z,86.29
2018-11-01T12:11:29.126Z,87.03
2018-11-01T12:13:58.566Z,88.14
2018-11-01T12:16:27.199Z,88.50
2018-11-01T12:18:55.960Z,88.98
2018-11-01T12:21:24.572Z,89.58
2018-11-01T12:23:53.211Z,91.80
2018-11-01T12:26:21.788Z,92.07
2018-11-01T12:28:50.551Z,91.46
2018-11-01T12:31:19.344Z,92.39
2018-11-01T12:33:48.025Z,93.50
2018-11-01T12:36:16.829Z,92.24
2018-11-01T12:38:45.502Z,92.26
2018-11-01T12:41:14.344Z,92.29
2018-11-01T12:43:43.176Z,91.64
2018-11-01T12:46:11.875Z,90.08
2018-11-01T12:48:40.517Z,91.10
2018-11-01T12:51:09.213Z,93.22
2018-11-01T12:53:37.925Z,92.65
2018-11-01T12:56:06.887Z,92.25
2018-11-01T12:58:35.505Z,91.77
2018-11-01T13:01:04.186Z,92.66
2018-11-01T13:03:32.792Z,92.46
2018-11-01T13:06:01.530Z,93.16
2018-11-01T13:08:30.125Z,94.06
2018-11-01T13:10:58.941Z,93.82
2018-11-01T13:13:27.875Z,91.60
2018-11-01T13:15:56.474Z,92.54
2018-11-01T13:18:25.061Z,93.77
2018-11-01T13:20:53.737Z,92.80
2018-11-01T13:23:22.522Z,93.77
2018-11-01T13:25:51.202Z,93.58
2018-11-01T13:28:19.721Z,92.31
2018-11-01T13:30:48.430Z,91.78
2018-11-01T13:33:17.343Z,91.30
2018-11-01T13:35:46.861Z,93.02
2018-11-01T13:38:15.681Z,91.70
2018-11-01T13:40:44.904Z,91.97
2018-11-01T13:43:14.059Z,90.44
2018-11-01T13:45:43.800Z,91.46
2018-11-01T13:48:12.735Z,91.49
2018-11-01T13:50:41.622Z,90.68
2018-11-01T13:53:10.276Z,90.87
2018-11-01T13:55:39.032Z,89.98
2018-11-01T13:58:07.768Z,87.88
2018-11-01T14:00:36.688Z,88.46
2018-11-01T14:03:06.629Z,88.93
2018-11-01T14:05:36.214Z,88.75
2018-11-01T14:08:05.245Z,88.64
2018-11-01T14:10:33.965Z,89.20
2018-11-01T14:13:02.665Z,89.22
2018-11-01T14:15:31.584Z,90.75
2018-11-01T14:18:00.557Z,90.26
2018-11-01T14:20:29.660Z,90.41
2018-11-01T14:22:58.719Z,90.08
2018-11-01T14:25:27.619Z,89.57
2018-11-01T14:27:57.208Z,88.77
2018-11-01T14:30:25.967Z,90.02
2018-11-01T14:32:54.781Z,90.90
2018-11-01T14:35:23.554Z,90.31
2018-11-01T14:37:52.925Z,90.28
2018-11-01T14:40:21.712Z,90.03
2018-11-01T14:42:50.872Z,92.17
2018-11-01T14:45:19.567Z,90.43
2018-11-01T14:47:50.134Z,90.74
2018-11-01T14:50:18.936Z,88.92
2018-11-01T14:52:48.384Z,88.99
2018-11-01T14:55:18.969Z,90.00
2018-11-01T14:57:47.700Z,88.99
2018-11-01T15:00:15.605Z,88.59
2018-11-01T15:02:44.563Z,88.87
2018-11-01T15:05:13.689Z,90.80
2018-11-01T15:07:42.546Z,91.80
2018-11-01T15:10:14.199Z,92.90
2018-11-01T15:12:43.600Z,92.16
2018-11-01T15:15:12.874Z,92.33
2018-11-01T15:17:43.182Z,92.06
2018-11-01T15:20:12.440Z,91.96
2018-11-01T15:22:41.062Z,91.99
2018-11-01T15:25:10.990Z,92.21
2018-11-01T15:27:39.604Z,93.46
2018-11-01T15:30:10.695Z,93.50
2018-11-01T15:32:39.252Z,92.75
2018-11-01T15:35:08.238Z,93.37
2018-11-01T15:37:37.003Z,93.68
2018-11-01T15:40:07.863Z,94.48
2018-11-01T15:42:36.461Z,94.55
2018-11-01T15:45:05.777Z,95.03
2018-11-01T15:47:34.409Z,95.73
2018-11-01T15:50:03.052Z,95.38
2018-11-01T15:52:31.653Z,95.05
2018-11-01T15:55:00.303Z,95.16
2018-11-01T15:57:28.945Z,95.67
2018-11-01T15:59:57.677Z,95.82
2018-11-01T16:02:26.525Z,95.86
2018-11-01T16:04:55.038Z,96.36
2018-11-01T16:07:23.652Z,96.18
2018-11-01T16:09:52.433Z,96.46
2018-11-01T16:12:20.965Z,96.97
2018-11-01T16:14:49.541Z,96.21
2018-11-01T16:17:18.284Z,97.28
2018-11-01T16:19:47.007Z,97.65
2018-11-01T16:22:15.604Z,98.35
2018-11-01T16:24:44.278Z,98.28
2018-11-01T16:27:12.948Z,98.01
2018-11-01T16:29:41.652Z,98.31
2018-11-01T16:32:10.309Z,98.39
2018-11-01T16:34:38.960Z,99.21
2018-11-01T16:37:09.813Z,99.13
2018-11-01T16:39:38.493Z,98.18
2018-11-01T16:42:07.227Z,98.43
2018-11-01T16:44:35.893Z,99.04
2018-11-01T16:47:04.516Z,99.48
2018-11-01T16:49:34.056Z,99.79
2018-11-01T16:52:02.700Z,99.87
2018-11-01T16:54:33.572Z,100.00
2018-11-01T16:57:04.206Z,100.00
2018-11-01T16:59:32.921Z,100.00
2018-11-01T17:02:01.589Z,100.00
2018-11-01T17:04:30.602Z,100.00
2018-11-01T17:06:59.280Z,100.00
2018-11-01T17:09:32.763Z,99.90
2018-11-01T17:12:01.964Z,100.00
2018-11-01T17:14:30.606Z,100.00
2018-11-01T17:16:59.505Z,100.00
2018-11-01T17:19:28.541Z,100.00
2018-11-01T17:21:57.113Z,100.00
2018-11-01T17:24:25.945Z,100.00
2018-11-01T17:26:54.795Z,100.00
2018-11-01T17:29:23.425Z,100.00
2018-11-01T17:31:52.128Z,99.80
2018-11-01T17:34:20.812Z,98.85
2018-11-01T17:36:49.479Z,99.19
2018-11-01T17:39:18.156Z,100.00
2018-11-01T17:41:46.819Z,100.00
2018-11-01T17:44:15.446Z,99.55
2018-11-01T17:46:44.160Z,99.77
2018-11-01T17:49:12.948Z,99.93
2018-11-01T17:51:41.508Z,99.71
2018-11-01T17:54:17.466Z,98.65
2018-11-01T17:56:46.580Z,99.25
2018-11-01T17:59:15.339Z,99.53
2018-11-01T18:01:44.017Z,99.67
2018-11-01T18:04:13.102Z,100.00
2018-11-01T18:06:41.714Z,100.00
2018-11-01T18:09:13.153Z,99.99
2018-11-01T18:11:42.311Z,98.56
2018-11-01T18:14:10.936Z,99.54
2018-11-01T18:16:40.409Z,100.00
2018-11-01T18:19:09.046Z,99.98
2018-11-01T18:21:37.736Z,98.69
2018-11-01T18:24:07.426Z,99.15
2018-11-01T18:26:35.970Z,99.35
2018-11-01T18:29:04.678Z,99.75
2018-11-01T18:31:33.183Z,99.91
2018-11-01T18:34:01.833Z,100.00
2018-11-01T18:36:30.594Z,100.00
2018-11-01T18:38:59.573Z,100.00
2018-11-01T18:41:28.190Z,100.00
2018-11-01T18:43:57.000Z,100.00
2018-11-01T18:46:25.756Z,100.00
2018-11-01T18:48:54.397Z,100.00
2018-11-01T18:51:23.125Z,100.00
2018-11-01T18:53:52.021Z,100.00
2018-11-01T18:56:21.276Z,100.00
2018-11-01T18:58:49.864Z,100.00
2018-11-01T19:01:18.539Z,100.00
2018-11-01T19:03:47.069Z,100.00
2018-11-01T19:06:15.856Z,100.00
2018-11-01T19:08:44.767Z,100.00
2018-11-01T19:11:13.389Z,100.00
2018-11-01T19:13:42.129Z,100.00
2018-11-01T19:16:10.807Z,100.00
2018-11-01T19:18:40.265Z,100.00
2018-11-01T19:21:11.655Z,100.00
2018-11-01T19:23:40.522Z,100.00
2018-11-01T19:26:10.606Z,100.00
2018-11-01T19:28:39.306Z,100.00
2018-11-01T19:31:07.897Z,100.00
2018-11-01T19:33:36.569Z,100.00
2018-11-01T19:36:05.369Z,100.00
2018-11-01T19:38:33.997Z,100.00
2018-11-01T19:41:02.556Z,100.00
2018-11-01T19:43:31.275Z,100.00
2018-11-01T19:45:59.889Z,100.00
2018-11-01T19:48:28.520Z,100.00
2018-11-01T19:50:57.150Z,100.00
2018-11-01T19:53:25.720Z,100.00
2018-11-01T19:55:54.405Z,100.00
2018-11-01T19:58:23.078Z,100.00
2018-11-01T20:00:51.801Z,100.00
2018-11-01T20:03:20.588Z,100.00
2018-11-01T20:05:49.241Z,100.00
2018-11-01T20:08:18.031Z,100.00
2018-11-01T20:10:46.561Z,100.00
2018-11-01T20:13:15.276Z,100.00
2018-11-01T20:15:43.964Z,100.00
2018-11-01T20:18:12.524Z,100.00
2018-11-01T20:20:41.077Z,100.00
2018-11-01T20:23:09.669Z,100.00
2018-11-01T20:25:38.427Z,100.00
2018-11-01T20:28:07.423Z,100.00
2018-11-01T20:30:36.004Z,100.00
2018-11-01T20:33:04.903Z,100.00
2018-11-01T20:35:33.500Z,100.00
2018-11-01T20:38:02.408Z,100.00
2018-11-01T20:40:31.356Z,100.00
2018-11-01T20:43:00.006Z,100.00
2018-11-01T20:45:28.789Z,100.00
2018-11-01T20:47:57.849Z,100.00
2018-11-01T20:50:26.889Z,100.00
2018-11-01T20:52:55.576Z,100.00
2018-11-01T20:55:24.125Z,100.00
2018-11-01T20:57:52.938Z,100.00
2018-11-01T21:00:21.361Z,100.00
2018-11-01T21:02:50.216Z,100.00
2018-11-01T21:05:18.796Z,100.00
2018-11-01T21:07:47.587Z,100.00
2018-11-01T21:10:16.674Z,100.00
2018-11-01T21:12:45.311Z,100.00
2018-11-01T21:15:15.051Z,100.00
2018-11-01T21:17:43.960Z,100.00
2018-11-01T21:20:12.713Z,100.00
2018-11-01T21:22:41.650Z,100.00
2018-11-01T21:25:11.689Z,100.00
2018-11-01T21:27:40.565Z,100.00
2018-11-01T21:30:09.545Z,100.00
2018-11-01T21:32:38.180Z,100.00
2018-11-01T21:35:07.485Z,100.00
2018-11-01T21:37:36.485Z,100.00
2018-11-01T21:40:07.093Z,100.00
2018-11-01T21:42:35.662Z,100.00
2018-11-01T21:45:04.740Z,100.00
2018-11-01T21:47:33.315Z,100.00
2018-11-01T21:50:02.128Z,100.00
2018-11-01T21:52:30.678Z,100.00
2018-11-01T21:54:59.320Z,100.00
2018-11-01T21:57:28.063Z,100.00
2018-11-01T21:59:56.992Z,100.00
2018-11-01T22:02:25.625Z,100.00
2018-11-01T22:04:54.857Z,100.00
2018-11-01T22:07:23.516Z,100.00
2018-11-01T22:09:52.311Z,100.00
2018-11-01T22:12:21.076Z,100.00
2018-11-01T22:14:49.699Z,100.00
2018-11-01T22:17:18.501Z,100.00
2018-11-01T22:19:47.236Z,100.00
2018-11-01T22:22:15.985Z,100.00
2018-11-01T22:24:44.780Z,100.00
2018-11-01T22:27:13.501Z,100.00
2018-11-01T22:29:42.109Z,100.00
2018-11-01T22:32:10.680Z,100.00
2018-11-01T22:34:39.268Z,100.00
2018-11-01T22:37:07.865Z,100.00
2018-11-01T22:39:36.533Z,100.00
2018-11-01T22:42:05.955Z,100.00
2018-11-01T22:44:34.756Z,100.00
2018-11-01T22:47:03.388Z,100.00
2018-11-01T22:49:31.981Z,100.00
2018-11-01T22:52:00.725Z,100.00
2018-11-01T22:54:29.681Z,100.00
2018-11-01T22:56:58.287Z,100.00
2018-11-01T22:59:26.880Z,100.00
2018-11-01T23:01:55.505Z,100.00
2018-11-01T23:04:24.487Z,100.00
2018-11-01T23:06:53.110Z,100.00
2018-11-01T23:09:21.689Z,100.00
2018-11-01T23:11:50.297Z,100.00
2018-11-01T23:14:19.097Z,100.00
2018-11-01T23:16:48.042Z,100.00
2018-11-01T23:19:16.676Z,100.00
2018-11-01T23:21:45.238Z,100.00
2018-11-01T23:24:14.109Z,100.00
2018-11-01T23:26:42.789Z,100.00
2018-11-01T23:29:11.557Z,100.00
2018-11-01T23:31:40.188Z,100.00
2018-11-01T23:34:08.892Z,100.00
2018-11-01T23:36:42.851Z,100.00
2018-11-01T23:39:16.650Z,100.00
2018-11-01T23:41:50.589Z,100.00
2018-11-01T23:44:24.532Z,100.00
2018-11-01T23:46:58.310Z,100.00
2018-11-01T23:50:03.637Z,100.00
2018-11-01T23:52:33.221Z,100.00
2018-11-01T23:55:01.859Z,100.00
2018-11-01T23:57:30.490Z,100.00
2018-11-01T23:59:59.164Z,100.00
